sensor_id;sensor_type;location;lat;lon;timestamp;P1;durP1;ratioP1;P2;durP2;ratioP2
48552;SDS011;34335;51.566;6.994;2023-07-28T00:01:11;3.23;;;1.70;;
48552;SDS011;34335;51.566;6.994;2023-07-28T00:03:36;3.60;;;1.77;;
48552;SDS011;34335;51.566;6.994;2023-07-28T00:06:02;3.72;;;1.70;;
48552;SDS011;34335;51.566;6.994;2023-07-28T00:08:27;4.35;;;1.83;;
48552;SDS011;34335;51.566;6.994;2023-07-28T00:10:52;3.05;;;1.90;;
48552;SDS011;34335;51.566;6.994;2023-07-28T00:13:18;4.43;;;2.30;;
48552;SDS011;34335;51.566;6.994;2023-07-28T00:15:43;3.38;;;1.88;;
48552;SDS011;34335;51.566;6.994;2023-07-28T00:18:08;8.23;;;2.30;;
48552;SDS011;34335;51.566;6.994;2023-07-28T00:20:34;4.27;;;1.97;;
48552;SDS011;34335;51.566;6.994;2023-07-28T00:22:59;3.72;;;1.85;;
48552;SDS011;34335;51.566;6.994;2023-07-28T00:25:24;3.95;;;1.67;;
48552;SDS011;34335;51.566;6.994;2023-07-28T00:27:50;3.35;;;1.80;;
48552;SDS011;34335;51.566;6.994;2023-07-28T00:30:15;3.33;;;1.70;;
48552;SDS011;34335;51.566;6.994;2023-07-28T00:32:41;4.25;;;1.75;;
48552;SDS011;34335;51.566;6.994;2023-07-28T00:35:06;3.35;;;1.60;;
48552;SDS011;34335;51.566;6.994;2023-07-28T00:37:32;2.72;;;1.50;;
48552;SDS011;34335;51.566;6.994;2023-07-28T00:39:57;3.55;;;1.63;;
48552;SDS011;34335;51.566;6.994;2023-07-28T00:42:22;3.10;;;1.43;;
48552;SDS011;34335;51.566;6.994;2023-07-28T00:44:48;2.83;;;1.38;;
48552;SDS011;34335;51.566;6.994;2023-07-28T00:47:13;3.33;;;1.73;;
48552;SDS011;34335;51.566;6.994;2023-07-28T00:49:39;2.20;;;1.20;;
48552;SDS011;34335;51.566;6.994;2023-07-28T00:52:06;3.03;;;1.52;;
48552;SDS011;34335;51.566;6.994;2023-07-28T00:54:32;4.30;;;2.05;;
48552;SDS011;34335;51.566;6.994;2023-07-28T00:56:58;3.47;;;1.67;;
48552;SDS011;34335;51.566;6.994;2023-07-28T00:59:23;5.20;;;2.00;;
48552;SDS011;34335;51.566;6.994;2023-07-28T01:01:49;5.70;;;1.90;;
48552;SDS011;34335;51.566;6.994;2023-07-28T01:04:14;3.20;;;1.50;;
48552;SDS011;34335;51.566;6.994;2023-07-28T01:06:41;3.33;;;1.80;;
48552;SDS011;34335;51.566;6.994;2023-07-28T01:09:12;4.38;;;1.98;;
48552;SDS011;34335;51.566;6.994;2023-07-28T01:12:01;3.33;;;1.90;;
48552;SDS011;34335;51.566;6.994;2023-07-28T01:14:26;4.15;;;2.13;;
48552;SDS011;34335;51.566;6.994;2023-07-28T01:16:51;4.65;;;2.08;;
48552;SDS011;34335;51.566;6.994;2023-07-28T01:19:17;3.92;;;2.33;;
48552;SDS011;34335;51.566;6.994;2023-07-28T01:21:46;4.45;;;2.10;;
48552;SDS011;34335;51.566;6.994;2023-07-28T01:27:02;9.10;;;2.38;;
48552;SDS011;34335;51.566;6.994;2023-07-28T01:29:27;5.40;;;2.15;;
48552;SDS011;34335;51.566;6.994;2023-07-28T01:31:54;4.47;;;2.17;;
48552;SDS011;34335;51.566;6.994;2023-07-28T01:34:19;3.47;;;1.70;;
48552;SDS011;34335;51.566;6.994;2023-07-28T01:36:44;4.20;;;2.00;;
48552;SDS011;34335;51.566;6.994;2023-07-28T01:39:10;4.20;;;2.42;;
48552;SDS011;34335;51.566;6.994;2023-07-28T01:41:35;3.83;;;2.13;;
48552;SDS011;34335;51.566;6.994;2023-07-28T01:44:00;3.10;;;1.77;;
48552;SDS011;34335;51.566;6.994;2023-07-28T01:46:26;4.93;;;2.20;;
48552;SDS011;34335;51.566;6.994;2023-07-28T01:48:51;3.70;;;1.67;;
48552;SDS011;34335;51.566;6.994;2023-07-28T01:51:16;4.13;;;2.08;;
48552;SDS011;34335;51.566;6.994;2023-07-28T01:53:42;2.90;;;1.40;;
48552;SDS011;34335;51.566;6.994;2023-07-28T01:56:07;4.68;;;2.25;;
48552;SDS011;34335;51.566;6.994;2023-07-28T01:58:32;5.18;;;2.00;;
48552;SDS011;34335;51.566;6.994;2023-07-28T02:00:58;3.47;;;2.08;;
48552;SDS011;34335;51.566;6.994;2023-07-28T02:03:23;3.27;;;1.63;;
48552;SDS011;34335;51.566;6.994;2023-07-28T02:05:48;3.75;;;1.55;;
48552;SDS011;34335;51.566;6.994;2023-07-28T02:08:14;4.72;;;2.28;;
48552;SDS011;34335;51.566;6.994;2023-07-28T02:10:40;3.03;;;1.80;;
48552;SDS011;34335;51.566;6.994;2023-07-28T02:13:05;4.60;;;2.17;;
48552;SDS011;34335;51.566;6.994;2023-07-28T02:15:30;4.38;;;1.67;;
48552;SDS011;34335;51.566;6.994;2023-07-28T02:17:56;3.88;;;2.17;;
48552;SDS011;34335;51.566;6.994;2023-07-28T02:20:21;4.90;;;2.40;;
48552;SDS011;34335;51.566;6.994;2023-07-28T02:22:46;4.32;;;2.00;;
48552;SDS011;34335;51.566;6.994;2023-07-28T02:25:12;4.28;;;2.15;;
48552;SDS011;34335;51.566;6.994;2023-07-28T02:27:37;5.07;;;2.45;;
48552;SDS011;34335;51.566;6.994;2023-07-28T02:30:04;4.97;;;2.30;;
48552;SDS011;34335;51.566;6.994;2023-07-28T02:32:30;4.35;;;2.20;;
48552;SDS011;34335;51.566;6.994;2023-07-28T02:34:56;3.63;;;1.98;;
48552;SDS011;34335;51.566;6.994;2023-07-28T02:37:21;3.43;;;2.00;;
48552;SDS011;34335;51.566;6.994;2023-07-28T02:39:47;5.90;;;2.45;;
48552;SDS011;34335;51.566;6.994;2023-07-28T02:42:12;4.87;;;2.70;;
48552;SDS011;34335;51.566;6.994;2023-07-28T02:44:38;5.88;;;2.60;;
48552;SDS011;34335;51.566;6.994;2023-07-28T02:47:04;5.00;;;2.38;;
48552;SDS011;34335;51.566;6.994;2023-07-28T02:49:30;4.03;;;2.72;;
48552;SDS011;34335;51.566;6.994;2023-07-28T02:51:55;4.38;;;1.85;;
48552;SDS011;34335;51.566;6.994;2023-07-28T02:54:21;5.10;;;2.55;;
48552;SDS011;34335;51.566;6.994;2023-07-28T02:56:48;4.68;;;2.42;;
48552;SDS011;34335;51.566;6.994;2023-07-28T02:59:14;4.55;;;2.50;;
48552;SDS011;34335;51.566;6.994;2023-07-28T03:01:39;3.63;;;2.28;;
48552;SDS011;34335;51.566;6.994;2023-07-28T03:04:04;4.93;;;2.22;;
48552;SDS011;34335;51.566;6.994;2023-07-28T03:06:30;3.58;;;2.15;;
48552;SDS011;34335;51.566;6.994;2023-07-28T03:08:55;5.90;;;2.47;;
48552;SDS011;34335;51.566;6.994;2023-07-28T03:11:23;3.85;;;2.20;;
48552;SDS011;34335;51.566;6.994;2023-07-28T03:13:48;4.95;;;2.60;;
48552;SDS011;34335;51.566;6.994;2023-07-28T03:16:13;5.35;;;2.33;;
48552;SDS011;34335;51.566;6.994;2023-07-28T03:18:39;4.82;;;2.63;;
48552;SDS011;34335;51.566;6.994;2023-07-28T03:21:04;4.73;;;2.47;;
48552;SDS011;34335;51.566;6.994;2023-07-28T03:23:29;5.82;;;3.08;;
48552;SDS011;34335;51.566;6.994;2023-07-28T03:25:54;4.73;;;2.50;;
48552;SDS011;34335;51.566;6.994;2023-07-28T03:28:20;5.73;;;2.33;;
48552;SDS011;34335;51.566;6.994;2023-07-28T03:30:45;6.27;;;2.70;;
48552;SDS011;34335;51.566;6.994;2023-07-28T03:33:11;7.82;;;2.80;;
48552;SDS011;34335;51.566;6.994;2023-07-28T03:35:36;5.28;;;2.70;;
48552;SDS011;34335;51.566;6.994;2023-07-28T03:38:01;4.93;;;3.17;;
48552;SDS011;34335;51.566;6.994;2023-07-28T03:40:27;5.53;;;2.97;;
48552;SDS011;34335;51.566;6.994;2023-07-28T03:42:53;4.90;;;2.60;;
48552;SDS011;34335;51.566;6.994;2023-07-28T03:45:19;5.47;;;3.20;;
48552;SDS011;34335;51.566;6.994;2023-07-28T03:47:45;6.50;;;3.20;;
48552;SDS011;34335;51.566;6.994;2023-07-28T03:50:10;6.05;;;2.65;;
48552;SDS011;34335;51.566;6.994;2023-07-28T03:52:35;5.00;;;2.50;;
48552;SDS011;34335;51.566;6.994;2023-07-28T03:55:01;6.38;;;2.40;;
48552;SDS011;34335;51.566;6.994;2023-07-28T03:57:26;5.65;;;2.70;;
48552;SDS011;34335;51.566;6.994;2023-07-28T03:59:52;4.43;;;2.50;;
48552;SDS011;34335;51.566;6.994;2023-07-28T04:02:17;4.50;;;2.23;;
48552;SDS011;34335;51.566;6.994;2023-07-28T04:04:42;5.57;;;2.22;;
48552;SDS011;34335;51.566;6.994;2023-07-28T04:07:08;4.27;;;2.03;;
48552;SDS011;34335;51.566;6.994;2023-07-28T04:09:33;6.27;;;3.10;;
48552;SDS011;34335;51.566;6.994;2023-07-28T04:11:58;3.80;;;2.25;;
48552;SDS011;34335;51.566;6.994;2023-07-28T04:14:24;4.25;;;2.30;;
48552;SDS011;34335;51.566;6.994;2023-07-28T04:16:49;5.63;;;2.57;;
48552;SDS011;34335;51.566;6.994;2023-07-28T04:19:14;5.93;;;2.55;;
48552;SDS011;34335;51.566;6.994;2023-07-28T04:21:40;4.80;;;2.27;;
48552;SDS011;34335;51.566;6.994;2023-07-28T04:24:06;5.03;;;2.45;;
48552;SDS011;34335;51.566;6.994;2023-07-28T04:26:32;6.38;;;2.42;;
48552;SDS011;34335;51.566;6.994;2023-07-28T04:28:58;5.78;;;2.50;;
48552;SDS011;34335;51.566;6.994;2023-07-28T04:31:23;4.40;;;2.33;;
48552;SDS011;34335;51.566;6.994;2023-07-28T04:33:48;4.00;;;2.03;;
48552;SDS011;34335;51.566;6.994;2023-07-28T04:36:14;4.93;;;2.57;;
48552;SDS011;34335;51.566;6.994;2023-07-28T04:38:39;4.67;;;2.17;;
48552;SDS011;34335;51.566;6.994;2023-07-28T04:41:04;4.67;;;2.43;;
48552;SDS011;34335;51.566;6.994;2023-07-28T04:43:29;4.70;;;2.70;;
48552;SDS011;34335;51.566;6.994;2023-07-28T04:45:55;4.43;;;2.27;;
48552;SDS011;34335;51.566;6.994;2023-07-28T04:48:23;5.23;;;2.50;;
48552;SDS011;34335;51.566;6.994;2023-07-28T04:50:48;5.40;;;2.80;;
48552;SDS011;34335;51.566;6.994;2023-07-28T04:53:14;4.55;;;2.60;;
48552;SDS011;34335;51.566;6.994;2023-07-28T04:55:39;5.10;;;2.80;;
48552;SDS011;34335;51.566;6.994;2023-07-28T04:58:04;5.87;;;3.20;;
48552;SDS011;34335;51.566;6.994;2023-07-28T05:00:30;5.13;;;3.10;;
48552;SDS011;34335;51.566;6.994;2023-07-28T05:02:55;7.37;;;3.23;;
48552;SDS011;34335;51.566;6.994;2023-07-28T05:05:20;5.67;;;3.43;;
48552;SDS011;34335;51.566;6.994;2023-07-28T05:07:46;5.28;;;2.60;;
48552;SDS011;34335;51.566;6.994;2023-07-28T05:10:11;4.47;;;2.53;;
48552;SDS011;34335;51.566;6.994;2023-07-28T05:12:36;8.77;;;3.33;;
48552;SDS011;34335;51.566;6.994;2023-07-28T05:15:02;4.90;;;2.33;;
48552;SDS011;34335;51.566;6.994;2023-07-28T05:17:27;5.65;;;2.58;;
48552;SDS011;34335;51.566;6.994;2023-07-28T05:19:53;5.70;;;2.90;;
48552;SDS011;34335;51.566;6.994;2023-07-28T05:22:18;7.43;;;3.17;;
48552;SDS011;34335;51.566;6.994;2023-07-28T05:24:44;4.60;;;2.60;;
48552;SDS011;34335;51.566;6.994;2023-07-28T05:27:10;4.57;;;2.35;;
48552;SDS011;34335;51.566;6.994;2023-07-28T05:29:36;5.13;;;2.60;;
48552;SDS011;34335;51.566;6.994;2023-07-28T05:32:01;3.53;;;1.90;;
48552;SDS011;34335;51.566;6.994;2023-07-28T05:34:26;5.35;;;2.45;;
48552;SDS011;34335;51.566;6.994;2023-07-28T05:36:52;4.80;;;2.13;;
48552;SDS011;34335;51.566;6.994;2023-07-28T05:39:17;4.10;;;2.00;;
48552;SDS011;34335;51.566;6.994;2023-07-28T05:41:42;5.13;;;2.70;;
48552;SDS011;34335;51.566;6.994;2023-07-28T05:44:07;3.97;;;1.93;;
48552;SDS011;34335;51.566;6.994;2023-07-28T05:46:33;4.50;;;2.00;;
48552;SDS011;34335;51.566;6.994;2023-07-28T05:48:59;3.65;;;1.55;;
48552;SDS011;34335;51.566;6.994;2023-07-28T05:51:24;4.35;;;1.98;;
48552;SDS011;34335;51.566;6.994;2023-07-28T05:53:50;4.78;;;2.40;;
48552;SDS011;34335;51.566;6.994;2023-07-28T05:56:15;4.15;;;1.98;;
48552;SDS011;34335;51.566;6.994;2023-07-28T05:58:41;3.58;;;1.92;;
48552;SDS011;34335;51.566;6.994;2023-07-28T06:01:06;2.33;;;1.50;;
48552;SDS011;34335;51.566;6.994;2023-07-28T06:03:31;5.23;;;1.80;;
48552;SDS011;34335;51.566;6.994;2023-07-28T06:05:57;4.88;;;2.28;;
48552;SDS011;34335;51.566;6.994;2023-07-28T06:08:22;3.05;;;1.45;;
48552;SDS011;34335;51.566;6.994;2023-07-28T06:10:48;7.93;;;2.05;;
48552;SDS011;34335;51.566;6.994;2023-07-28T06:13:13;3.55;;;1.85;;
48552;SDS011;34335;51.566;6.994;2023-07-28T06:15:42;4.60;;;2.00;;
48552;SDS011;34335;51.566;6.994;2023-07-28T06:18:07;4.53;;;1.88;;
48552;SDS011;34335;51.566;6.994;2023-07-28T06:20:33;4.05;;;2.17;;
48552;SDS011;34335;51.566;6.994;2023-07-28T06:22:59;4.00;;;1.65;;
48552;SDS011;34335;51.566;6.994;2023-07-28T06:25:25;5.25;;;2.25;;
48552;SDS011;34335;51.566;6.994;2023-07-28T06:27:50;5.22;;;2.25;;
48552;SDS011;34335;51.566;6.994;2023-07-28T06:30:15;5.10;;;2.23;;
48552;SDS011;34335;51.566;6.994;2023-07-28T06:32:41;4.63;;;2.10;;
48552;SDS011;34335;51.566;6.994;2023-07-28T06:35:06;5.00;;;2.60;;
48552;SDS011;34335;51.566;6.994;2023-07-28T06:37:32;4.60;;;1.88;;
48552;SDS011;34335;51.566;6.994;2023-07-28T06:39:57;4.72;;;2.25;;
48552;SDS011;34335;51.566;6.994;2023-07-28T06:42:23;3.77;;;2.03;;
48552;SDS011;34335;51.566;6.994;2023-07-28T06:44:52;5.63;;;2.70;;
48552;SDS011;34335;51.566;6.994;2023-07-28T06:47:17;4.28;;;1.92;;
48552;SDS011;34335;51.566;6.994;2023-07-28T06:49:43;8.52;;;2.35;;
48552;SDS011;34335;51.566;6.994;2023-07-28T06:52:08;5.10;;;2.55;;
48552;SDS011;34335;51.566;6.994;2023-07-28T06:54:34;6.60;;;3.03;;
48552;SDS011;34335;51.566;6.994;2023-07-28T06:56:59;6.82;;;2.60;;
48552;SDS011;34335;51.566;6.994;2023-07-28T06:59:25;7.85;;;2.65;;
48552;SDS011;34335;51.566;6.994;2023-07-28T07:01:50;6.57;;;3.50;;
48552;SDS011;34335;51.566;6.994;2023-07-28T07:04:15;5.50;;;2.85;;
48552;SDS011;34335;51.566;6.994;2023-07-28T07:06:41;7.83;;;3.10;;
48552;SDS011;34335;51.566;6.994;2023-07-28T07:09:06;6.68;;;2.90;;
48552;SDS011;34335;51.566;6.994;2023-07-28T07:11:32;5.13;;;2.38;;
48552;SDS011;34335;51.566;6.994;2023-07-28T07:13:57;6.38;;;2.70;;
48552;SDS011;34335;51.566;6.994;2023-07-28T07:16:22;4.37;;;2.27;;
48552;SDS011;34335;51.566;6.994;2023-07-28T07:18:48;5.93;;;2.83;;
48552;SDS011;34335;51.566;6.994;2023-07-28T07:21:13;5.43;;;2.70;;
48552;SDS011;34335;51.566;6.994;2023-07-28T07:23:38;5.35;;;2.53;;
48552;SDS011;34335;51.566;6.994;2023-07-28T07:26:04;5.20;;;2.40;;
48552;SDS011;34335;51.566;6.994;2023-07-28T07:28:29;4.60;;;2.00;;
48552;SDS011;34335;51.566;6.994;2023-07-28T07:30:55;4.87;;;2.00;;
48552;SDS011;34335;51.566;6.994;2023-07-28T07:33:20;5.15;;;2.28;;
48552;SDS011;34335;51.566;6.994;2023-07-28T07:35:46;5.18;;;2.33;;
48552;SDS011;34335;51.566;6.994;2023-07-28T07:38:11;4.95;;;2.20;;
48552;SDS011;34335;51.566;6.994;2023-07-28T07:40:37;6.70;;;2.40;;
48552;SDS011;34335;51.566;6.994;2023-07-28T07:43:03;5.57;;;3.30;;
48552;SDS011;34335;51.566;6.994;2023-07-28T07:45:29;4.03;;;2.08;;
48552;SDS011;34335;51.566;6.994;2023-07-28T07:47:55;4.70;;;2.40;;
48552;SDS011;34335;51.566;6.994;2023-07-28T07:50:20;5.45;;;2.47;;
48552;SDS011;34335;51.566;6.994;2023-07-28T07:52:47;6.72;;;2.50;;
48552;SDS011;34335;51.566;6.994;2023-07-28T07:55:13;5.03;;;2.33;;
48552;SDS011;34335;51.566;6.994;2023-07-28T07:57:39;5.00;;;2.33;;
48552;SDS011;34335;51.566;6.994;2023-07-28T08:00:05;7.38;;;3.45;;
48552;SDS011;34335;51.566;6.994;2023-07-28T08:02:31;7.07;;;2.83;;
48552;SDS011;34335;51.566;6.994;2023-07-28T08:04:56;5.00;;;2.53;;
48552;SDS011;34335;51.566;6.994;2023-07-28T08:07:22;7.95;;;3.13;;
48552;SDS011;34335;51.566;6.994;2023-07-28T08:09:48;7.75;;;2.80;;
48552;SDS011;34335;51.566;6.994;2023-07-28T08:12:14;7.25;;;3.55;;
48552;SDS011;34335;51.566;6.994;2023-07-28T08:14:40;6.68;;;3.65;;
48552;SDS011;34335;51.566;6.994;2023-07-28T08:17:05;8.65;;;4.05;;
48552;SDS011;34335;51.566;6.994;2023-07-28T08:19:31;7.63;;;4.40;;
48552;SDS011;34335;51.566;6.994;2023-07-28T08:21:56;8.17;;;4.13;;
48552;SDS011;34335;51.566;6.994;2023-07-28T08:24:21;7.00;;;3.27;;
48552;SDS011;34335;51.566;6.994;2023-07-28T08:26:47;7.88;;;3.88;;
48552;SDS011;34335;51.566;6.994;2023-07-28T08:29:12;8.73;;;4.37;;
48552;SDS011;34335;51.566;6.994;2023-07-28T08:31:37;7.67;;;4.73;;
48552;SDS011;34335;51.566;6.994;2023-07-28T08:34:02;9.17;;;3.70;;
48552;SDS011;34335;51.566;6.994;2023-07-28T08:36:28;6.25;;;3.58;;
48552;SDS011;34335;51.566;6.994;2023-07-28T08:38:54;7.93;;;3.63;;
48552;SDS011;34335;51.566;6.994;2023-07-28T08:41:19;6.78;;;3.70;;
48552;SDS011;34335;51.566;6.994;2023-07-28T08:43:45;8.52;;;4.18;;
48552;SDS011;34335;51.566;6.994;2023-07-28T08:46:10;6.28;;;3.20;;
48552;SDS011;34335;51.566;6.994;2023-07-28T08:48:36;6.55;;;3.33;;
48552;SDS011;34335;51.566;6.994;2023-07-28T08:51:02;6.30;;;3.72;;
48552;SDS011;34335;51.566;6.994;2023-07-28T08:53:29;13.13;;;3.42;;
48552;SDS011;34335;51.566;6.994;2023-07-28T08:55:54;5.65;;;3.17;;
48552;SDS011;34335;51.566;6.994;2023-07-28T08:58:21;5.93;;;3.33;;
48552;SDS011;34335;51.566;6.994;2023-07-28T09:00:47;6.68;;;3.38;;
48552;SDS011;34335;51.566;6.994;2023-07-28T09:03:19;7.40;;;3.10;;
48552;SDS011;34335;51.566;6.994;2023-07-28T09:05:45;5.45;;;2.72;;
48552;SDS011;34335;51.566;6.994;2023-07-28T09:08:12;5.28;;;3.08;;
48552;SDS011;34335;51.566;6.994;2023-07-28T09:10:45;8.07;;;3.42;;
48552;SDS011;34335;51.566;6.994;2023-07-28T09:13:15;7.25;;;2.80;;
48552;SDS011;34335;51.566;6.994;2023-07-28T09:15:42;7.25;;;2.97;;
48552;SDS011;34335;51.566;6.994;2023-07-28T09:18:08;2.95;;;1.70;;
48552;SDS011;34335;51.566;6.994;2023-07-28T09:20:37;3.47;;;1.92;;
48552;SDS011;34335;51.566;6.994;2023-07-28T09:23:04;4.68;;;2.50;;
48552;SDS011;34335;51.566;6.994;2023-07-28T09:25:30;3.85;;;2.17;;
48552;SDS011;34335;51.566;6.994;2023-07-28T09:27:56;4.47;;;2.05;;
48552;SDS011;34335;51.566;6.994;2023-07-28T09:30:22;4.80;;;2.13;;
48552;SDS011;34335;51.566;6.994;2023-07-28T09:32:49;4.35;;;2.15;;
48552;SDS011;34335;51.566;6.994;2023-07-28T09:35:16;4.25;;;1.80;;
48552;SDS011;34335;51.566;6.994;2023-07-28T09:41:09;4.68;;;2.35;;
48552;SDS011;34335;51.566;6.994;2023-07-28T09:43:36;4.65;;;2.03;;
48552;SDS011;34335;51.566;6.994;2023-07-28T09:46:11;4.38;;;2.33;;
48552;SDS011;34335;51.566;6.994;2023-07-28T09:48:39;5.25;;;3.00;;
48552;SDS011;34335;51.566;6.994;2023-07-28T09:51:12;6.45;;;3.20;;
48552;SDS011;34335;51.566;6.994;2023-07-28T09:53:46;6.70;;;3.00;;
48552;SDS011;34335;51.566;6.994;2023-07-28T09:56:18;4.82;;;2.45;;
48552;SDS011;34335;51.566;6.994;2023-07-28T09:58:51;4.85;;;2.05;;
48552;SDS011;34335;51.566;6.994;2023-07-28T10:01:19;2.65;;;1.30;;
48552;SDS011;34335;51.566;6.994;2023-07-28T10:03:46;2.38;;;1.25;;
48552;SDS011;34335;51.566;6.994;2023-07-28T10:06:12;2.20;;;1.30;;
48552;SDS011;34335;51.566;6.994;2023-07-28T10:08:39;3.45;;;1.33;;
48552;SDS011;34335;51.566;6.994;2023-07-28T10:11:05;3.17;;;1.40;;
48552;SDS011;34335;51.566;6.994;2023-07-28T10:13:39;3.75;;;1.50;;
48552;SDS011;34335;51.566;6.994;2023-07-28T10:16:06;4.38;;;2.40;;
48552;SDS011;34335;51.566;6.994;2023-07-28T10:18:34;5.25;;;2.75;;
48552;SDS011;34335;51.566;6.994;2023-07-28T10:21:06;3.97;;;1.90;;
48552;SDS011;34335;51.566;6.994;2023-07-28T10:23:34;3.75;;;2.28;;
48552;SDS011;34335;51.566;6.994;2023-07-28T10:26:03;4.00;;;2.20;;
48552;SDS011;34335;51.566;6.994;2023-07-28T10:28:31;4.72;;;2.25;;
48552;SDS011;34335;51.566;6.994;2023-07-28T10:31:02;3.70;;;2.00;;
48552;SDS011;34335;51.566;6.994;2023-07-28T10:33:31;5.15;;;1.98;;
48552;SDS011;34335;51.566;6.994;2023-07-28T10:36:14;3.65;;;2.13;;
48552;SDS011;34335;51.566;6.994;2023-07-28T10:38:40;3.20;;;1.75;;
48552;SDS011;34335;51.566;6.994;2023-07-28T10:41:06;3.75;;;2.15;;
48552;SDS011;34335;51.566;6.994;2023-07-28T10:43:33;3.58;;;1.83;;
48552;SDS011;34335;51.566;6.994;2023-07-28T10:45:59;4.82;;;2.13;;
48552;SDS011;34335;51.566;6.994;2023-07-28T10:48:25;3.65;;;1.80;;
48552;SDS011;34335;51.566;6.994;2023-07-28T10:50:50;5.03;;;2.60;;
48552;SDS011;34335;51.566;6.994;2023-07-28T10:53:16;3.22;;;1.55;;
48552;SDS011;34335;51.566;6.994;2023-07-28T10:55:42;3.65;;;1.98;;
48552;SDS011;34335;51.566;6.994;2023-07-28T10:58:07;5.70;;;2.38;;
48552;SDS011;34335;51.566;6.994;2023-07-28T11:00:32;4.25;;;2.03;;
48552;SDS011;34335;51.566;6.994;2023-07-28T11:02:58;3.13;;;1.90;;
48552;SDS011;34335;51.566;6.994;2023-07-28T11:05:24;4.90;;;2.03;;
48552;SDS011;34335;51.566;6.994;2023-07-28T11:07:52;3.55;;;1.98;;
48552;SDS011;34335;51.566;6.994;2023-07-28T11:10:20;3.40;;;2.13;;
48552;SDS011;34335;51.566;6.994;2023-07-28T11:12:46;3.25;;;1.70;;
48552;SDS011;34335;51.566;6.994;2023-07-28T11:15:14;3.47;;;1.73;;
48552;SDS011;34335;51.566;6.994;2023-07-28T11:17:40;9.43;;;2.40;;
48552;SDS011;34335;51.566;6.994;2023-07-28T11:20:20;4.95;;;2.47;;
48552;SDS011;34335;51.566;6.994;2023-07-28T11:22:54;6.90;;;3.35;;
48552;SDS011;34335;51.566;6.994;2023-07-28T11:25:21;5.65;;;3.47;;
48552;SDS011;34335;51.566;6.994;2023-07-28T11:27:48;3.90;;;2.30;;
48552;SDS011;34335;51.566;6.994;2023-07-28T11:30:15;3.25;;;1.80;;
48552;SDS011;34335;51.566;6.994;2023-07-28T11:32:45;3.38;;;1.77;;
48552;SDS011;34335;51.566;6.994;2023-07-28T11:35:12;3.75;;;1.65;;
48552;SDS011;34335;51.566;6.994;2023-07-28T11:37:39;4.47;;;1.83;;
48552;SDS011;34335;51.566;6.994;2023-07-28T11:40:06;2.17;;;1.08;;
48552;SDS011;34335;51.566;6.994;2023-07-28T11:42:33;2.78;;;1.40;;
48552;SDS011;34335;51.566;6.994;2023-07-28T11:45:00;2.72;;;1.45;;
48552;SDS011;34335;51.566;6.994;2023-07-28T11:47:27;3.55;;;1.70;;
48552;SDS011;34335;51.566;6.994;2023-07-28T11:49:52;2.47;;;1.38;;
48552;SDS011;34335;51.566;6.994;2023-07-28T11:52:18;4.60;;;1.40;;
48552;SDS011;34335;51.566;6.994;2023-07-28T11:54:44;3.03;;;1.25;;
48552;SDS011;34335;51.566;6.994;2023-07-28T11:57:10;2.22;;;1.13;;
48552;SDS011;34335;51.566;6.994;2023-07-28T11:59:35;2.13;;;1.00;;
48552;SDS011;34335;51.566;6.994;2023-07-28T12:02:02;3.00;;;1.35;;
48552;SDS011;34335;51.566;6.994;2023-07-28T12:04:36;1.77;;;0.98;;
48552;SDS011;34335;51.566;6.994;2023-07-28T12:09:48;1.48;;;0.88;;
48552;SDS011;34335;51.566;6.994;2023-07-28T12:12:16;1.55;;;0.80;;
48552;SDS011;34335;51.566;6.994;2023-07-28T12:14:43;1.75;;;0.95;;
48552;SDS011;34335;51.566;6.994;2023-07-28T12:17:16;1.98;;;1.10;;
48552;SDS011;34335;51.566;6.994;2023-07-28T12:19:55;1.83;;;0.80;;
48552;SDS011;34335;51.566;6.994;2023-07-28T12:22:26;1.25;;;0.73;;
48552;SDS011;34335;51.566;6.994;2023-07-28T12:24:52;1.10;;;0.70;;
48552;SDS011;34335;51.566;6.994;2023-07-28T12:27:18;1.80;;;1.00;;
48552;SDS011;34335;51.566;6.994;2023-07-28T12:29:45;1.08;;;0.50;;
48552;SDS011;34335;51.566;6.994;2023-07-28T12:32:11;1.30;;;0.60;;
48552;SDS011;34335;51.566;6.994;2023-07-28T12:34:36;2.80;;;0.80;;
48552;SDS011;34335;51.566;6.994;2023-07-28T12:37:01;1.40;;;0.70;;
48552;SDS011;34335;51.566;6.994;2023-07-28T12:39:27;0.95;;;0.68;;
48552;SDS011;34335;51.566;6.994;2023-07-28T12:41:54;1.58;;;0.65;;
48552;SDS011;34335;51.566;6.994;2023-07-28T12:44:19;1.55;;;0.90;;
48552;SDS011;34335;51.566;6.994;2023-07-28T12:46:45;1.50;;;0.82;;
48552;SDS011;34335;51.566;6.994;2023-07-28T12:49:11;2.58;;;0.73;;
48552;SDS011;34335;51.566;6.994;2023-07-28T12:51:36;1.70;;;0.52;;
48552;SDS011;34335;51.566;6.994;2023-07-28T12:54:02;3.37;;;1.00;;
48552;SDS011;34335;51.566;6.994;2023-07-28T12:56:27;1.63;;;0.93;;
48552;SDS011;34335;51.566;6.994;2023-07-28T12:58:53;0.70;;;0.45;;
48552;SDS011;34335;51.566;6.994;2023-07-28T13:01:18;1.88;;;0.70;;
48552;SDS011;34335;51.566;6.994;2023-07-28T13:03:43;1.63;;;0.80;;
48552;SDS011;34335;51.566;6.994;2023-07-28T13:06:09;6.50;;;1.20;;
48552;SDS011;34335;51.566;6.994;2023-07-28T13:08:34;1.50;;;0.90;;
48552;SDS011;34335;51.566;6.994;2023-07-28T13:11:00;1.60;;;0.70;;
48552;SDS011;34335;51.566;6.994;2023-07-28T13:13:25;1.77;;;1.10;;
48552;SDS011;34335;51.566;6.994;2023-07-28T13:15:50;2.13;;;0.97;;
48552;SDS011;34335;51.566;6.994;2023-07-28T13:18:15;2.67;;;0.80;;
48552;SDS011;34335;51.566;6.994;2023-07-28T13:20:41;2.13;;;0.97;;
48552;SDS011;34335;51.566;6.994;2023-07-28T13:23:06;2.00;;;1.00;;
48552;SDS011;34335;51.566;6.994;2023-07-28T13:25:32;2.47;;;0.90;;
48552;SDS011;34335;51.566;6.994;2023-07-28T13:27:57;1.50;;;0.70;;
48552;SDS011;34335;51.566;6.994;2023-07-28T13:30:23;1.42;;;0.80;;
48552;SDS011;34335;51.566;6.994;2023-07-28T13:32:48;2.10;;;1.00;;
48552;SDS011;34335;51.566;6.994;2023-07-28T13:35:13;2.40;;;0.90;;
48552;SDS011;34335;51.566;6.994;2023-07-28T13:37:39;1.85;;;1.17;;
48552;SDS011;34335;51.566;6.994;2023-07-28T13:40:05;2.03;;;0.98;;
48552;SDS011;34335;51.566;6.994;2023-07-28T13:42:31;1.95;;;0.88;;
48552;SDS011;34335;51.566;6.994;2023-07-28T13:44:56;1.43;;;0.80;;
48552;SDS011;34335;51.566;6.994;2023-07-28T13:47:21;1.97;;;0.67;;
48552;SDS011;34335;51.566;6.994;2023-07-28T13:49:47;1.73;;;0.80;;
48552;SDS011;34335;51.566;6.994;2023-07-28T13:52:12;2.63;;;1.10;;
48552;SDS011;34335;51.566;6.994;2023-07-28T13:54:37;2.13;;;1.00;;
48552;SDS011;34335;51.566;6.994;2023-07-28T13:57:03;1.08;;;0.70;;
48552;SDS011;34335;51.566;6.994;2023-07-28T13:59:28;1.98;;;0.60;;
48552;SDS011;34335;51.566;6.994;2023-07-28T14:01:54;1.05;;;0.50;;
48552;SDS011;34335;51.566;6.994;2023-07-28T14:04:20;1.10;;;0.75;;
48552;SDS011;34335;51.566;6.994;2023-07-28T14:06:45;1.20;;;0.70;;
48552;SDS011;34335;51.566;6.994;2023-07-28T14:09:11;1.30;;;0.70;;
48552;SDS011;34335;51.566;6.994;2023-07-28T14:11:36;0.97;;;0.70;;
48552;SDS011;34335;51.566;6.994;2023-07-28T14:14:01;1.10;;;0.70;;
48552;SDS011;34335;51.566;6.994;2023-07-28T14:16:27;1.70;;;0.70;;
48552;SDS011;34335;51.566;6.994;2023-07-28T14:18:53;1.23;;;0.60;;
48552;SDS011;34335;51.566;6.994;2023-07-28T14:21:18;1.07;;;0.50;;
48552;SDS011;34335;51.566;6.994;2023-07-28T14:23:43;1.87;;;0.70;;
48552;SDS011;34335;51.566;6.994;2023-07-28T14:26:09;1.83;;;0.50;;
48552;SDS011;34335;51.566;6.994;2023-07-28T14:28:34;0.88;;;0.50;;
48552;SDS011;34335;51.566;6.994;2023-07-28T14:30:59;1.30;;;0.70;;
48552;SDS011;34335;51.566;6.994;2023-07-28T14:33:25;0.68;;;0.50;;
48552;SDS011;34335;51.566;6.994;2023-07-28T14:35:51;0.82;;;0.60;;
48552;SDS011;34335;51.566;6.994;2023-07-28T14:38:17;0.38;;;0.32;;
48552;SDS011;34335;51.566;6.994;2023-07-28T14:40:42;0.60;;;0.43;;
48552;SDS011;34335;51.566;6.994;2023-07-28T14:43:11;0.40;;;0.30;;
48552;SDS011;34335;51.566;6.994;2023-07-28T14:45:37;1.05;;;0.50;;
48552;SDS011;34335;51.566;6.994;2023-07-28T14:48:02;0.77;;;0.30;;
48552;SDS011;34335;51.566;6.994;2023-07-28T14:50:28;1.38;;;0.73;;